Login to view products.
 
Saturday, April 13, 2024 (04:02 UTC)
Delma Island Airport
ICAO: OMDL   IATA: ZDY
  • PLEASE NOTE! This forecast does not comply with ICAO regulations as it depends on a Non-ICAO Compliant Observing System
    (B in the forecast indicates "BELOW")
  • METAR OMDL NOT RECEIVED
  • FORECAST OMDL:
  • OMDL 122300Z 1300/1308 33016KT 8000 FEW040 BECMG 1305/1307 36006KT=
04 D:\Input Parser\Destinations\Final\23\OMDLL000823001753671112.txt-- -- 13/04/2024-- 2
Last Updated:
Wind Dir/Speed:
Temperature:
Rel. Humidity:
Pressure:
Visibility: